sensor_id;sensor_type;location;lat;lon;timestamp;P1;durP1;ratioP1;P2;durP2;ratioP2
61505;SDS011;47366;51.916;4.574;2023-11-21T00:00:08;1.70;;;1.23;;
61505;SDS011;47366;51.916;4.574;2023-11-21T00:02:37;3.30;;;1.35;;
61505;SDS011;47366;51.916;4.574;2023-11-21T00:05:05;1.52;;;1.25;;
61505;SDS011;47366;51.916;4.574;2023-11-21T00:07:33;2.53;;;1.40;;
61505;SDS011;47366;51.916;4.574;2023-11-21T00:09:58;2.03;;;1.30;;
61505;SDS011;47366;51.916;4.574;2023-11-21T00:12:24;2.63;;;1.70;;
61505;SDS011;47366;51.916;4.574;2023-11-21T00:14:49;5.53;;;2.22;;
61505;SDS011;47366;51.916;4.574;2023-11-21T00:17:15;2.20;;;1.67;;
61505;SDS011;47366;51.916;4.574;2023-11-21T00:19:40;2.20;;;1.50;;
61505;SDS011;47366;51.916;4.574;2023-11-21T00:22:07;3.65;;;1.85;;
61505;SDS011;47366;51.916;4.574;2023-11-21T00:24:34;3.47;;;1.77;;
61505;SDS011;47366;51.916;4.574;2023-11-21T00:26:59;1.83;;;1.38;;
61505;SDS011;47366;51.916;4.574;2023-11-21T00:29:25;2.38;;;1.30;;
61505;SDS011;47366;51.916;4.574;2023-11-21T00:31:50;1.73;;;1.45;;
61505;SDS011;47366;51.916;4.574;2023-11-21T00:34:16;2.47;;;1.73;;
61505;SDS011;47366;51.916;4.574;2023-11-21T00:36:41;2.03;;;1.58;;
61505;SDS011;47366;51.916;4.574;2023-11-21T00:39:07;3.58;;;2.15;;
61505;SDS011;47366;51.916;4.574;2023-11-21T00:41:32;2.33;;;1.75;;
61505;SDS011;47366;51.916;4.574;2023-11-21T00:43:58;7.18;;;1.55;;
61505;SDS011;47366;51.916;4.574;2023-11-21T00:46:24;2.17;;;1.38;;
61505;SDS011;47366;51.916;4.574;2023-11-21T00:48:52;3.25;;;1.85;;
61505;SDS011;47366;51.916;4.574;2023-11-21T00:51:19;1.83;;;1.30;;
61505;SDS011;47366;51.916;4.574;2023-11-21T00:53:44;2.65;;;1.38;;
61505;SDS011;47366;51.916;4.574;2023-11-21T00:56:11;3.38;;;1.98;;
61505;SDS011;47366;51.916;4.574;2023-11-21T00:58:36;4.72;;;1.92;;
61505;SDS011;47366;51.916;4.574;2023-11-21T01:01:02;2.85;;;1.77;;
61505;SDS011;47366;51.916;4.574;2023-11-21T01:03:28;3.10;;;1.75;;
61505;SDS011;47366;51.916;4.574;2023-11-21T01:05:53;2.55;;;1.38;;
61505;SDS011;47366;51.916;4.574;2023-11-21T01:08:19;1.77;;;1.42;;
61505;SDS011;47366;51.916;4.574;2023-11-21T01:10:45;2.10;;;1.40;;
61505;SDS011;47366;51.916;4.574;2023-11-21T01:13:10;2.15;;;1.45;;
61505;SDS011;47366;51.916;4.574;2023-11-21T01:15:36;2.13;;;1.50;;
61505;SDS011;47366;51.916;4.574;2023-11-21T01:18:01;1.48;;;1.20;;
61505;SDS011;47366;51.916;4.574;2023-11-21T01:20:26;2.83;;;1.48;;
61505;SDS011;47366;51.916;4.574;2023-11-21T01:22:52;3.00;;;1.33;;
61505;SDS011;47366;51.916;4.574;2023-11-21T01:25:18;1.75;;;1.23;;
61505;SDS011;47366;51.916;4.574;2023-11-21T01:27:44;1.73;;;1.42;;
61505;SDS011;47366;51.916;4.574;2023-11-21T01:30:09;2.22;;;1.25;;
61505;SDS011;47366;51.916;4.574;2023-11-21T01:32:36;2.05;;;1.20;;
61505;SDS011;47366;51.916;4.574;2023-11-21T01:35:02;4.38;;;0.93;;
61505;SDS011;47366;51.916;4.574;2023-11-21T01:37:28;3.58;;;1.83;;
61505;SDS011;47366;51.916;4.574;2023-11-21T01:39:53;1.85;;;0.80;;
61505;SDS011;47366;51.916;4.574;2023-11-21T01:42:22;2.20;;;1.20;;
61505;SDS011;47366;51.916;4.574;2023-11-21T01:44:48;1.08;;;0.98;;
61505;SDS011;47366;51.916;4.574;2023-11-21T01:47:14;2.55;;;1.13;;
61505;SDS011;47366;51.916;4.574;2023-11-21T01:49:40;3.28;;;1.05;;
61505;SDS011;47366;51.916;4.574;2023-11-21T01:52:09;1.42;;;0.82;;
61505;SDS011;47366;51.916;4.574;2023-11-21T01:54:36;2.25;;;0.80;;
61505;SDS011;47366;51.916;4.574;2023-11-21T01:57:02;2.75;;;1.10;;
61505;SDS011;47366;51.916;4.574;2023-11-21T01:59:37;1.83;;;1.08;;
61505;SDS011;47366;51.916;4.574;2023-11-21T02:02:06;4.00;;;1.77;;
61505;SDS011;47366;51.916;4.574;2023-11-21T02:04:35;2.75;;;1.20;;
61505;SDS011;47366;51.916;4.574;2023-11-21T02:07:01;7.53;;;1.10;;
61505;SDS011;47366;51.916;4.574;2023-11-21T02:09:30;1.50;;;0.98;;
61505;SDS011;47366;51.916;4.574;2023-11-21T02:11:58;1.15;;;0.77;;
61505;SDS011;47366;51.916;4.574;2023-11-21T02:14:24;1.58;;;1.17;;
61505;SDS011;47366;51.916;4.574;2023-11-21T02:16:53;0.80;;;0.60;;
61505;SDS011;47366;51.916;4.574;2023-11-21T02:19:21;2.55;;;0.98;;
61505;SDS011;47366;51.916;4.574;2023-11-21T02:21:55;1.15;;;1.05;;
61505;SDS011;47366;51.916;4.574;2023-11-21T02:24:23;2.80;;;1.10;;
61505;SDS011;47366;51.916;4.574;2023-11-21T02:26:49;1.08;;;0.90;;
61505;SDS011;47366;51.916;4.574;2023-11-21T02:29:18;1.33;;;0.95;;
61505;SDS011;47366;51.916;4.574;2023-11-21T02:31:47;1.05;;;0.75;;
61505;SDS011;47366;51.916;4.574;2023-11-21T02:34:16;2.50;;;1.05;;
61505;SDS011;47366;51.916;4.574;2023-11-21T02:36:43;1.95;;;1.00;;
61505;SDS011;47366;51.916;4.574;2023-11-21T02:39:09;0.93;;;0.80;;
61505;SDS011;47366;51.916;4.574;2023-11-21T02:41:37;4.70;;;0.88;;
61505;SDS011;47366;51.916;4.574;2023-11-21T02:44:03;1.67;;;1.13;;
61505;SDS011;47366;51.916;4.574;2023-11-21T02:46:31;1.98;;;0.95;;
61505;SDS011;47366;51.916;4.574;2023-11-21T02:48:58;1.15;;;0.90;;
61505;SDS011;47366;51.916;4.574;2023-11-21T02:51:24;3.30;;;1.20;;
61505;SDS011;47366;51.916;4.574;2023-11-21T02:53:50;1.77;;;0.98;;
61505;SDS011;47366;51.916;4.574;2023-11-21T02:56:16;2.53;;;0.85;;
61505;SDS011;47366;51.916;4.574;2023-11-21T02:58:42;1.27;;;0.90;;
61505;SDS011;47366;51.916;4.574;2023-11-21T03:01:09;1.00;;;0.73;;
61505;SDS011;47366;51.916;4.574;2023-11-21T03:03:34;2.65;;;1.33;;
61505;SDS011;47366;51.916;4.574;2023-11-21T03:06:04;2.03;;;1.10;;
61505;SDS011;47366;51.916;4.574;2023-11-21T03:08:29;1.63;;;1.00;;
61505;SDS011;47366;51.916;4.574;2023-11-21T03:10:55;2.20;;;1.30;;
61505;SDS011;47366;51.916;4.574;2023-11-21T03:13:21;0.88;;;0.68;;
61505;SDS011;47366;51.916;4.574;2023-11-21T03:15:46;0.82;;;0.80;;
61505;SDS011;47366;51.916;4.574;2023-11-21T03:18:12;1.23;;;0.95;;
61505;SDS011;47366;51.916;4.574;2023-11-21T03:20:38;1.08;;;0.90;;
61505;SDS011;47366;51.916;4.574;2023-11-21T03:23:03;2.40;;;0.95;;
61505;SDS011;47366;51.916;4.574;2023-11-21T03:25:30;5.32;;;1.23;;
61505;SDS011;47366;51.916;4.574;2023-11-21T03:27:56;0.95;;;0.80;;
61505;SDS011;47366;51.916;4.574;2023-11-21T03:30:21;2.88;;;1.27;;
61505;SDS011;47366;51.916;4.574;2023-11-21T03:32:46;5.47;;;1.75;;
61505;SDS011;47366;51.916;4.574;2023-11-21T03:35:12;5.57;;;0.90;;
61505;SDS011;47366;51.916;4.574;2023-11-21T03:37:38;0.82;;;0.63;;
61505;SDS011;47366;51.916;4.574;2023-11-21T03:40:06;3.63;;;1.48;;
61505;SDS011;47366;51.916;4.574;2023-11-21T03:42:33;0.93;;;0.82;;
61505;SDS011;47366;51.916;4.574;2023-11-21T03:44:58;0.88;;;0.77;;
61505;SDS011;47366;51.916;4.574;2023-11-21T03:47:24;1.13;;;0.68;;
61505;SDS011;47366;51.916;4.574;2023-11-21T03:49:51;2.08;;;1.13;;
61505;SDS011;47366;51.916;4.574;2023-11-21T03:52:16;2.47;;;0.98;;
61505;SDS011;47366;51.916;4.574;2023-11-21T03:54:42;2.90;;;1.40;;
61505;SDS011;47366;51.916;4.574;2023-11-21T03:57:08;0.98;;;0.85;;
61505;SDS011;47366;51.916;4.574;2023-11-21T03:59:34;0.93;;;0.82;;
61505;SDS011;47366;51.916;4.574;2023-11-21T04:02:00;1.45;;;0.88;;
61505;SDS011;47366;51.916;4.574;2023-11-21T04:04:25;2.47;;;1.27;;
61505;SDS011;47366;51.916;4.574;2023-11-21T04:06:50;2.30;;;1.40;;
61505;SDS011;47366;51.916;4.574;2023-11-21T04:09:17;5.53;;;1.77;;
61505;SDS011;47366;51.916;4.574;2023-11-21T04:11:42;1.13;;;0.98;;
61505;SDS011;47366;51.916;4.574;2023-11-21T04:14:08;1.02;;;0.88;;
61505;SDS011;47366;51.916;4.574;2023-11-21T04:16:34;1.60;;;1.23;;
61505;SDS011;47366;51.916;4.574;2023-11-21T04:18:59;2.63;;;1.17;;
61505;SDS011;47366;51.916;4.574;2023-11-21T04:21:25;2.45;;;1.25;;
61505;SDS011;47366;51.916;4.574;2023-11-21T04:23:50;0.85;;;0.75;;
61505;SDS011;47366;51.916;4.574;2023-11-21T04:26:16;1.75;;;1.08;;
61505;SDS011;47366;51.916;4.574;2023-11-21T04:28:41;1.05;;;0.95;;
61505;SDS011;47366;51.916;4.574;2023-11-21T04:31:06;2.78;;;0.90;;
61505;SDS011;47366;51.916;4.574;2023-11-21T04:33:32;1.27;;;0.82;;
61505;SDS011;47366;51.916;4.574;2023-11-21T04:35:57;4.43;;;1.67;;
61505;SDS011;47366;51.916;4.574;2023-11-21T04:38:23;4.57;;;1.50;;
61505;SDS011;47366;51.916;4.574;2023-11-21T04:40:48;1.27;;;1.00;;
61505;SDS011;47366;51.916;4.574;2023-11-21T04:43:13;2.17;;;1.20;;
61505;SDS011;47366;51.916;4.574;2023-11-21T04:45:39;3.28;;;1.52;;
61505;SDS011;47366;51.916;4.574;2023-11-21T04:48:06;4.05;;;1.40;;
61505;SDS011;47366;51.916;4.574;2023-11-21T04:50:31;2.08;;;1.17;;
61505;SDS011;47366;51.916;4.574;2023-11-21T04:52:57;1.17;;;1.00;;
61505;SDS011;47366;51.916;4.574;2023-11-21T04:55:22;1.73;;;1.10;;
61505;SDS011;47366;51.916;4.574;2023-11-21T04:57:47;3.33;;;1.08;;
61505;SDS011;47366;51.916;4.574;2023-11-21T05:00:13;1.30;;;1.05;;
61505;SDS011;47366;51.916;4.574;2023-11-21T05:02:39;1.13;;;0.80;;
61505;SDS011;47366;51.916;4.574;2023-11-21T05:05:06;2.30;;;0.93;;
61505;SDS011;47366;51.916;4.574;2023-11-21T05:07:32;1.08;;;0.98;;
61505;SDS011;47366;51.916;4.574;2023-11-21T05:10:00;1.77;;;0.90;;
61505;SDS011;47366;51.916;4.574;2023-11-21T05:12:30;1.13;;;0.88;;
61505;SDS011;47366;51.916;4.574;2023-11-21T05:15:00;1.75;;;1.05;;
61505;SDS011;47366;51.916;4.574;2023-11-21T05:17:26;1.77;;;1.20;;
61505;SDS011;47366;51.916;4.574;2023-11-21T05:19:51;2.30;;;1.15;;
61505;SDS011;47366;51.916;4.574;2023-11-21T05:22:17;1.75;;;1.30;;
61505;SDS011;47366;51.916;4.574;2023-11-21T05:24:42;1.40;;;1.05;;
61505;SDS011;47366;51.916;4.574;2023-11-21T05:27:07;1.77;;;0.88;;
61505;SDS011;47366;51.916;4.574;2023-11-21T05:29:34;2.33;;;1.35;;
61505;SDS011;47366;51.916;4.574;2023-11-21T05:31:59;1.23;;;0.98;;
61505;SDS011;47366;51.916;4.574;2023-11-21T05:34:25;1.15;;;0.90;;
61505;SDS011;47366;51.916;4.574;2023-11-21T05:36:51;3.95;;;1.17;;
61505;SDS011;47366;51.916;4.574;2023-11-21T05:39:16;5.00;;;1.60;;
61505;SDS011;47366;51.916;4.574;2023-11-21T05:41:45;3.17;;;1.42;;
61505;SDS011;47366;51.916;4.574;2023-11-21T05:44:11;2.47;;;1.55;;
61505;SDS011;47366;51.916;4.574;2023-11-21T05:46:39;1.65;;;1.20;;
61505;SDS011;47366;51.916;4.574;2023-11-21T05:49:05;1.38;;;0.82;;
61505;SDS011;47366;51.916;4.574;2023-11-21T05:51:30;1.60;;;0.60;;
61505;SDS011;47366;51.916;4.574;2023-11-21T05:53:56;2.75;;;1.50;;
61505;SDS011;47366;51.916;4.574;2023-11-21T05:56:21;1.45;;;0.98;;
61505;SDS011;47366;51.916;4.574;2023-11-21T05:58:47;2.25;;;1.35;;
61505;SDS011;47366;51.916;4.574;2023-11-21T06:01:12;1.00;;;0.90;;
61505;SDS011;47366;51.916;4.574;2023-11-21T06:03:38;1.73;;;0.95;;
61505;SDS011;47366;51.916;4.574;2023-11-21T06:06:03;3.67;;;1.15;;
61505;SDS011;47366;51.916;4.574;2023-11-21T06:08:29;1.77;;;0.85;;
61505;SDS011;47366;51.916;4.574;2023-11-21T06:10:55;2.20;;;1.25;;
61505;SDS011;47366;51.916;4.574;2023-11-21T06:13:20;1.42;;;1.02;;
61505;SDS011;47366;51.916;4.574;2023-11-21T06:15:49;2.08;;;0.80;;
61505;SDS011;47366;51.916;4.574;2023-11-21T06:18:15;1.08;;;0.77;;
61505;SDS011;47366;51.916;4.574;2023-11-21T06:20:40;2.83;;;1.50;;
61505;SDS011;47366;51.916;4.574;2023-11-21T06:23:05;1.15;;;1.02;;
61505;SDS011;47366;51.916;4.574;2023-11-21T06:25:31;1.10;;;0.98;;
61505;SDS011;47366;51.916;4.574;2023-11-21T06:28:01;1.85;;;1.27;;
61505;SDS011;47366;51.916;4.574;2023-11-21T06:30:26;2.53;;;1.35;;
61505;SDS011;47366;51.916;4.574;2023-11-21T06:32:51;0.80;;;0.65;;
61505;SDS011;47366;51.916;4.574;2023-11-21T06:35:17;1.48;;;0.73;;
61505;SDS011;47366;51.916;4.574;2023-11-21T06:37:42;1.42;;;1.17;;
61505;SDS011;47366;51.916;4.574;2023-11-21T06:40:12;2.95;;;1.13;;
61505;SDS011;47366;51.916;4.574;2023-11-21T06:42:40;2.28;;;1.13;;
61505;SDS011;47366;51.916;4.574;2023-11-21T06:45:06;1.40;;;1.15;;
61505;SDS011;47366;51.916;4.574;2023-11-21T06:47:32;1.55;;;1.20;;
61505;SDS011;47366;51.916;4.574;2023-11-21T06:49:58;0.50;;;0.50;;
61505;SDS011;47366;51.916;4.574;2023-11-21T06:52:23;0.73;;;0.65;;
61505;SDS011;47366;51.916;4.574;2023-11-21T06:54:49;2.85;;;0.85;;
61505;SDS011;47366;51.916;4.574;2023-11-21T06:57:17;2.40;;;1.30;;
61505;SDS011;47366;51.916;4.574;2023-11-21T06:59:42;2.72;;;0.95;;
61505;SDS011;47366;51.916;4.574;2023-11-21T07:02:08;2.22;;;1.25;;
61505;SDS011;47366;51.916;4.574;2023-11-21T07:04:34;2.90;;;1.42;;
61505;SDS011;47366;51.916;4.574;2023-11-21T07:07:01;1.33;;;1.00;;
61505;SDS011;47366;51.916;4.574;2023-11-21T07:09:27;2.20;;;0.95;;
61505;SDS011;47366;51.916;4.574;2023-11-21T07:11:52;3.13;;;1.30;;
61505;SDS011;47366;51.916;4.574;2023-11-21T07:14:18;1.48;;;0.90;;
61505;SDS011;47366;51.916;4.574;2023-11-21T07:16:44;1.23;;;0.85;;
61505;SDS011;47366;51.916;4.574;2023-11-21T07:19:10;1.33;;;0.95;;
61505;SDS011;47366;51.916;4.574;2023-11-21T07:21:37;1.95;;;1.20;;
61505;SDS011;47366;51.916;4.574;2023-11-21T07:24:04;3.13;;;0.95;;
61505;SDS011;47366;51.916;4.574;2023-11-21T07:26:31;1.73;;;1.00;;
61505;SDS011;47366;51.916;4.574;2023-11-21T07:28:58;1.00;;;0.40;;
61505;SDS011;47366;51.916;4.574;2023-11-21T07:31:23;0.63;;;0.52;;
61505;SDS011;47366;51.916;4.574;2023-11-21T07:33:49;3.17;;;0.63;;
61505;SDS011;47366;51.916;4.574;2023-11-21T07:36:15;1.17;;;0.60;;
61505;SDS011;47366;51.916;4.574;2023-11-21T07:38:43;0.30;;;0.30;;
61505;SDS011;47366;51.916;4.574;2023-11-21T07:41:08;1.70;;;1.00;;
61505;SDS011;47366;51.916;4.574;2023-11-21T07:43:34;1.95;;;0.70;;
61505;SDS011;47366;51.916;4.574;2023-11-21T07:46:03;1.38;;;0.52;;
61505;SDS011;47366;51.916;4.574;2023-11-21T07:48:30;0.65;;;0.63;;
61505;SDS011;47366;51.916;4.574;2023-11-21T07:50:56;1.00;;;0.80;;
61505;SDS011;47366;51.916;4.574;2023-11-21T07:53:23;0.47;;;0.35;;
61505;SDS011;47366;51.916;4.574;2023-11-21T07:55:54;1.13;;;0.50;;
61505;SDS011;47366;51.916;4.574;2023-11-21T07:58:19;0.43;;;0.38;;
61505;SDS011;47366;51.916;4.574;2023-11-21T08:00:45;1.98;;;0.60;;
61505;SDS011;47366;51.916;4.574;2023-11-21T08:03:10;1.83;;;0.88;;
61505;SDS011;47366;51.916;4.574;2023-11-21T08:05:36;4.55;;;0.68;;
61505;SDS011;47366;51.916;4.574;2023-11-21T08:08:01;0.35;;;0.30;;
61505;SDS011;47366;51.916;4.574;2023-11-21T08:10:27;1.02;;;0.50;;
61505;SDS011;47366;51.916;4.574;2023-11-21T08:12:52;0.47;;;0.30;;
61505;SDS011;47366;51.916;4.574;2023-11-21T08:15:18;0.45;;;0.22;;
61505;SDS011;47366;51.916;4.574;2023-11-21T08:17:44;0.40;;;0.30;;
61505;SDS011;47366;51.916;4.574;2023-11-21T08:20:11;1.33;;;0.60;;
61505;SDS011;47366;51.916;4.574;2023-11-21T08:22:37;1.20;;;0.63;;
61505;SDS011;47366;51.916;4.574;2023-11-21T08:25:02;0.95;;;0.70;;
61505;SDS011;47366;51.916;4.574;2023-11-21T08:27:30;1.10;;;0.90;;
61505;SDS011;47366;51.916;4.574;2023-11-21T08:29:56;2.85;;;0.88;;
61505;SDS011;47366;51.916;4.574;2023-11-21T08:32:22;2.38;;;0.80;;
61505;SDS011;47366;51.916;4.574;2023-11-21T08:34:47;0.82;;;0.40;;
61505;SDS011;47366;51.916;4.574;2023-11-21T08:37:15;1.10;;;0.80;;
61505;SDS011;47366;51.916;4.574;2023-11-21T08:39:41;1.10;;;0.80;;
61505;SDS011;47366;51.916;4.574;2023-11-21T08:42:07;0.95;;;0.70;;
61505;SDS011;47366;51.916;4.574;2023-11-21T08:44:33;0.73;;;0.52;;
61505;SDS011;47366;51.916;4.574;2023-11-21T08:46:58;0.98;;;0.63;;
61505;SDS011;47366;51.916;4.574;2023-11-21T08:49:24;1.45;;;1.00;;
61505;SDS011;47366;51.916;4.574;2023-11-21T08:51:51;1.27;;;0.75;;
61505;SDS011;47366;51.916;4.574;2023-11-21T08:54:16;1.65;;;1.05;;
61505;SDS011;47366;51.916;4.574;2023-11-21T08:56:43;1.83;;;1.02;;
61505;SDS011;47366;51.916;4.574;2023-11-21T08:59:08;1.02;;;0.68;;
61505;SDS011;47366;51.916;4.574;2023-11-21T09:01:34;3.55;;;1.25;;
61505;SDS011;47366;51.916;4.574;2023-11-21T09:03:59;1.40;;;0.90;;
61505;SDS011;47366;51.916;4.574;2023-11-21T09:06:24;1.13;;;0.52;;
61505;SDS011;47366;51.916;4.574;2023-11-21T09:08:50;1.60;;;0.77;;
61505;SDS011;47366;51.916;4.574;2023-11-21T09:11:16;3.55;;;0.70;;
61505;SDS011;47366;51.916;4.574;2023-11-21T09:13:42;1.38;;;1.10;;
61505;SDS011;47366;51.916;4.574;2023-11-21T09:16:07;0.85;;;0.60;;
61505;SDS011;47366;51.916;4.574;2023-11-21T09:18:33;1.85;;;1.00;;
61505;SDS011;47366;51.916;4.574;2023-11-21T09:20:59;0.95;;;0.70;;
61505;SDS011;47366;51.916;4.574;2023-11-21T09:23:24;0.93;;;0.70;;
61505;SDS011;47366;51.916;4.574;2023-11-21T09:25:50;2.72;;;0.88;;
61505;SDS011;47366;51.916;4.574;2023-11-21T09:28:16;3.30;;;1.33;;
61505;SDS011;47366;51.916;4.574;2023-11-21T09:30:42;2.25;;;1.30;;
61505;SDS011;47366;51.916;4.574;2023-11-21T09:33:08;2.08;;;1.15;;
61505;SDS011;47366;51.916;4.574;2023-11-21T09:35:38;1.63;;;0.95;;
61505;SDS011;47366;51.916;4.574;2023-11-21T09:38:04;2.95;;;1.33;;
61505;SDS011;47366;51.916;4.574;2023-11-21T09:40:35;2.15;;;1.40;;
61505;SDS011;47366;51.916;4.574;2023-11-21T09:43:02;2.22;;;1.30;;
61505;SDS011;47366;51.916;4.574;2023-11-21T09:45:34;1.92;;;0.88;;
61505;SDS011;47366;51.916;4.574;2023-11-21T09:48:00;1.45;;;1.05;;
61505;SDS011;47366;51.916;4.574;2023-11-21T09:50:26;2.70;;;1.38;;
61505;SDS011;47366;51.916;4.574;2023-11-21T09:55:42;1.85;;;1.10;;
61505;SDS011;47366;51.916;4.574;2023-11-21T09:58:09;2.15;;;1.40;;
61505;SDS011;47366;51.916;4.574;2023-11-21T10:00:37;0.88;;;0.50;;
61505;SDS011;47366;51.916;4.574;2023-11-21T10:03:05;2.70;;;1.00;;
61505;SDS011;47366;51.916;4.574;2023-11-21T10:05:30;1.35;;;0.80;;
61505;SDS011;47366;51.916;4.574;2023-11-21T10:07:59;2.20;;;1.20;;
61505;SDS011;47366;51.916;4.574;2023-11-21T10:10:25;1.55;;;1.00;;
61505;SDS011;47366;51.916;4.574;2023-11-21T10:12:54;2.05;;;0.93;;
61505;SDS011;47366;51.916;4.574;2023-11-21T10:15:21;2.20;;;1.00;;
61505;SDS011;47366;51.916;4.574;2023-11-21T10:17:48;1.40;;;0.80;;
61505;SDS011;47366;51.916;4.574;2023-11-21T10:20:14;0.93;;;0.70;;
61505;SDS011;47366;51.916;4.574;2023-11-21T10:22:41;1.40;;;0.68;;
61505;SDS011;47366;51.916;4.574;2023-11-21T10:25:08;1.25;;;0.82;;
61505;SDS011;47366;51.916;4.574;2023-11-21T10:27:34;1.95;;;1.23;;
61505;SDS011;47366;51.916;4.574;2023-11-21T10:30:01;1.55;;;1.02;;
61505;SDS011;47366;51.916;4.574;2023-11-21T10:32:29;2.45;;;1.05;;
61505;SDS011;47366;51.916;4.574;2023-11-21T10:34:57;0.70;;;0.50;;
61505;SDS011;47366;51.916;4.574;2023-11-21T10:37:25;2.83;;;1.40;;
61505;SDS011;47366;51.916;4.574;2023-11-21T10:39:55;2.20;;;0.98;;
61505;SDS011;47366;51.916;4.574;2023-11-21T10:42:23;2.73;;;1.37;;
61505;SDS011;47366;51.916;4.574;2023-11-21T10:44:49;1.58;;;0.88;;
61505;SDS011;47366;51.916;4.574;2023-11-21T10:47:15;1.98;;;1.27;;
61505;SDS011;47366;51.916;4.574;2023-11-21T10:49:41;1.60;;;0.98;;
61505;SDS011;47366;51.916;4.574;2023-11-21T10:52:07;2.60;;;1.60;;
61505;SDS011;47366;51.916;4.574;2023-11-21T10:54:33;1.35;;;0.90;;
61505;SDS011;47366;51.916;4.574;2023-11-21T10:57:00;2.25;;;1.13;;
61505;SDS011;47366;51.916;4.574;2023-11-21T10:59:29;2.15;;;1.00;;
61505;SDS011;47366;51.916;4.574;2023-11-21T11:01:57;2.17;;;0.98;;
61505;SDS011;47366;51.916;4.574;2023-11-21T11:04:23;1.38;;;0.77;;
61505;SDS011;47366;51.916;4.574;2023-11-21T11:06:55;1.95;;;1.23;;
61505;SDS011;47366;51.916;4.574;2023-11-21T11:09:26;1.38;;;0.93;;
61505;SDS011;47366;51.916;4.574;2023-11-21T11:11:52;3.72;;;0.88;;
61505;SDS011;47366;51.916;4.574;2023-11-21T11:14:19;1.52;;;0.90;;
61505;SDS011;47366;51.916;4.574;2023-11-21T11:16:45;0.90;;;0.60;;
61505;SDS011;47366;51.916;4.574;2023-11-21T11:19:10;2.20;;;1.50;;
61505;SDS011;47366;51.916;4.574;2023-11-21T11:21:43;2.08;;;1.23;;
61505;SDS011;47366;51.916;4.574;2023-11-21T11:24:19;4.20;;;0.52;;
61505;SDS011;47366;51.916;4.574;2023-11-21T11:27:01;1.48;;;0.98;;
61505;SDS011;47366;51.916;4.574;2023-11-21T11:37:55;1.90;;;1.27;;
61505;SDS011;47366;51.916;4.574;2023-11-21T11:40:21;3.10;;;1.48;;
61505;SDS011;47366;51.916;4.574;2023-11-21T11:43:00;2.55;;;1.55;;
61505;SDS011;47366;51.916;4.574;2023-11-21T11:45:33;3.08;;;1.35;;
61505;SDS011;47366;51.916;4.574;2023-11-21T11:48:00;1.77;;;1.17;;
61505;SDS011;47366;51.916;4.574;2023-11-21T11:50:27;2.72;;;1.73;;
61505;SDS011;47366;51.916;4.574;2023-11-21T11:52:53;3.28;;;2.15;;
61505;SDS011;47366;51.916;4.574;2023-11-21T11:55:20;2.40;;;1.17;;
61505;SDS011;47366;51.916;4.574;2023-11-21T11:57:47;3.03;;;1.60;;
61505;SDS011;47366;51.916;4.574;2023-11-21T12:02:49;3.70;;;1.75;;
61505;SDS011;47366;51.916;4.574;2023-11-21T12:05:17;3.28;;;1.52;;
61505;SDS011;47366;51.916;4.574;2023-11-21T12:07:44;3.33;;;1.95;;
61505;SDS011;47366;51.916;4.574;2023-11-21T12:10:14;3.00;;;1.70;;
61505;SDS011;47366;51.916;4.574;2023-11-21T12:12:49;2.42;;;1.50;;
61505;SDS011;47366;51.916;4.574;2023-11-21T12:15:17;4.07;;;1.70;;
61505;SDS011;47366;51.916;4.574;2023-11-21T12:17:44;2.92;;;1.15;;
61505;SDS011;47366;51.916;4.574;2023-11-21T12:20:14;2.47;;;1.48;;
61505;SDS011;47366;51.916;4.574;2023-11-21T12:22:45;6.80;;;1.48;;
61505;SDS011;47366;51.916;4.574;2023-11-21T12:25:15;2.83;;;1.60;;
61505;SDS011;47366;51.916;4.574;2023-11-21T12:27:57;6.03;;;1.58;;
61505;SDS011;47366;51.916;4.574;2023-11-21T12:30:28;3.22;;;1.55;;
61505;SDS011;47366;51.916;4.574;2023-11-21T12:32:56;7.18;;;1.50;;
61505;SDS011;47366;51.916;4.574;2023-11-21T12:35:24;3.25;;;1.58;;
61505;SDS011;47366;51.916;4.574;2023-11-21T12:37:51;2.17;;;1.10;;
61505;SDS011;47366;51.916;4.574;2023-11-21T12:40:17;3.03;;;1.65;;
61505;SDS011;47366;51.916;4.574;2023-11-21T12:42:46;2.50;;;1.42;;
61505;SDS011;47366;51.916;4.574;2023-11-21T12:47:45;3.80;;;1.75;;
61505;SDS011;47366;51.916;4.574;2023-11-21T12:50:13;4.07;;;1.55;;
61505;SDS011;47366;51.916;4.574;2023-11-21T12:52:42;1.50;;;0.77;;
61505;SDS011;47366;51.916;4.574;2023-11-21T12:55:16;1.30;;;1.10;;
61505;SDS011;47366;51.916;4.574;2023-11-21T12:57:47;3.75;;;1.83;;
61505;SDS011;47366;51.916;4.574;2023-11-21T13:00:16;3.10;;;1.48;;
61505;SDS011;47366;51.916;4.574;2023-11-21T13:02:56;4.55;;;1.75;;
61505;SDS011;47366;51.916;4.574;2023-11-21T13:05:26;2.83;;;1.45;;
61505;SDS011;47366;51.916;4.574;2023-11-21T13:07:57;2.58;;;1.50;;
61505;SDS011;47366;51.916;4.574;2023-11-21T13:10:24;2.53;;;1.23;;
61505;SDS011;47366;51.916;4.574;2023-11-21T13:12:55;2.78;;;1.60;;
61505;SDS011;47366;51.916;4.574;2023-11-21T13:15:23;2.08;;;1.35;;
61505;SDS011;47366;51.916;4.574;2023-11-21T13:17:49;2.55;;;1.10;;
61505;SDS011;47366;51.916;4.574;2023-11-21T13:20:16;2.17;;;1.30;;
61505;SDS011;47366;51.916;4.574;2023-11-21T13:22:46;3.47;;;1.25;;
61505;SDS011;47366;51.916;4.574;2023-11-21T13:25:13;2.38;;;1.55;;
61505;SDS011;47366;51.916;4.574;2023-11-21T13:27:40;2.13;;;1.13;;
61505;SDS011;47366;51.916;4.574;2023-11-21T13:30:08;2.90;;;1.63;;
61505;SDS011;47366;51.916;4.574;2023-11-21T13:32:33;2.20;;;1.55;;
61505;SDS011;47366;51.916;4.574;2023-11-21T13:34:59;6.38;;;1.80;;
61505;SDS011;47366;51.916;4.574;2023-11-21T13:37:24;3.45;;;1.63;;
61505;SDS011;47366;51.916;4.574;2023-11-21T13:39:53;3.38;;;1.83;;
61505;SDS011;47366;51.916;4.574;2023-11-21T13:42:19;3.00;;;1.85;;
61505;SDS011;47366;51.916;4.574;2023-11-21T13:44:48;2.10;;;1.70;;
61505;SDS011;47366;51.916;4.574;2023-11-21T13:47:14;2.83;;;1.70;;
61505;SDS011;47366;51.916;4.574;2023-11-21T13:49:39;2.33;;;1.52;;
61505;SDS011;47366;51.916;4.574;2023-11-21T13:52:07;2.45;;;1.27;;
61505;SDS011;47366;51.916;4.574;2023-11-21T13:54:40;2.08;;;1.38;;
61505;SDS011;47366;51.916;4.574;2023-11-21T13:57:05;3.65;;;1.60;;
61505;SDS011;47366;51.916;4.574;2023-11-21T13:59:31;4.65;;;1.83;;
61505;SDS011;47366;51.916;4.574;2023-11-21T14:01:57;2.90;;;1.50;;
61505;SDS011;47366;51.916;4.574;2023-11-21T14:04:24;4.10;;;1.48;;
61505;SDS011;47366;51.916;4.574;2023-11-21T14:07:04;5.05;;;1.88;;
61505;SDS011;47366;51.916;4.574;2023-11-21T14:09:47;2.25;;;1.33;;
61505;SDS011;47366;51.916;4.574;2023-11-21T14:12:14;5.22;;;1.70;;
61505;SDS011;47366;51.916;4.574;2023-11-21T14:14:41;3.47;;;1.92;;
61505;SDS011;47366;51.916;4.574;2023-11-21T14:17:06;3.15;;;2.13;;
61505;SDS011;47366;51.916;4.574;2023-11-21T14:19:32;5.57;;;2.83;;
61505;SDS011;47366;51.916;4.574;2023-11-21T14:21:58;4.45;;;2.13;;
61505;SDS011;47366;51.916;4.574;2023-11-21T14:24:24;5.15;;;2.38;;
61505;SDS011;47366;51.916;4.574;2023-11-21T14:26:50;3.67;;;1.95;;
61505;SDS011;47366;51.916;4.574;2023-11-21T14:29:16;4.35;;;2.50;;
61505;SDS011;47366;51.916;4.574;2023-11-21T14:31:45;3.85;;;2.53;;
61505;SDS011;47366;51.916;4.574;2023-11-21T14:34:11;3.65;;;2.15;;
61505;SDS011;47366;51.916;4.574;2023-11-21T14:36:37;4.95;;;2.35;;
61505;SDS011;47366;51.916;4.574;2023-11-21T14:39:04;3.55;;;2.13;;
61505;SDS011;47366;51.916;4.574;2023-11-21T14:41:34;3.03;;;1.70;;
61505;SDS011;47366;51.916;4.574;2023-11-21T14:44:01;4.78;;;2.15;;
61505;SDS011;47366;51.916;4.574;2023-11-21T14:46:29;7.60;;;2.92;;
61505;SDS011;47366;51.916;4.574;2023-11-21T14:48:54;3.28;;;2.03;;
61505;SDS011;47366;51.916;4.574;2023-11-21T14:51:43;3.40;;;2.00;;
61505;SDS011;47366;51.916;4.574;2023-11-21T14:54:29;6.45;;;2.67;;
61505;SDS011;47366;51.916;4.574;2023-11-21T14:57:11;5.15;;;2.65;;
61505;SDS011;47366;51.916;4.574;2023-11-21T14:59:46;3.97;;;2.17;;
61505;SDS011;47366;51.916;4.574;2023-11-21T15:02:17;5.13;;;2.50;;